createdAt,value
2018-09-14T00:00:04.197Z,9.30
2018-09-14T00:02:37.947Z,8.13
2018-09-14T00:05:05.390Z,8.97
2018-09-14T00:07:32.851Z,10.03
2018-09-14T00:10:01.750Z,8.13
2018-09-14T00:12:29.184Z,7.67
2018-09-14T00:15:07.199Z,7.67
2018-09-14T00:17:34.650Z,8.53
2018-09-14T00:20:05.263Z,10.13
2018-09-14T00:22:33.007Z,8.40
2018-09-14T00:25:02.044Z,8.80
2018-09-14T00:27:35.598Z,8.07
2018-09-14T00:30:03.246Z,7.67
2018-09-14T00:32:32.745Z,8.90
2018-09-14T00:35:00.197Z,8.93
2018-09-14T00:37:33.833Z,8.07
2018-09-14T00:40:02.349Z,7.67
2018-09-14T00:42:30.073Z,11.07
2018-09-14T00:44:57.549Z,10.60
2018-09-14T00:47:29.317Z,11.03
2018-09-14T00:49:57.002Z,9.30
2018-09-14T00:52:24.416Z,10.90
2018-09-14T00:54:51.952Z,13.90
2018-09-14T00:57:19.370Z,9.80
2018-09-14T00:59:47.153Z,18.30
2018-09-14T01:02:14.596Z,13.80
2018-09-14T01:04:42.045Z,11.53
2018-09-14T01:07:09.717Z,11.50
2018-09-14T01:09:40.893Z,19.73
2018-09-14T01:12:08.314Z,10.37
2018-09-14T01:14:35.757Z,10.40
2018-09-14T01:17:03.398Z,10.57
2018-09-14T01:19:30.785Z,8.73
2018-09-14T01:21:58.305Z,13.67
2018-09-14T01:24:39.776Z,13.03
2018-09-14T01:27:07.263Z,14.20
2018-09-14T01:29:34.751Z,13.23
2018-09-14T01:32:02.217Z,13.80
2018-09-14T01:34:30.136Z,11.70
2018-09-14T01:37:03.737Z,16.57
2018-09-14T01:39:31.258Z,13.60
2018-09-14T01:41:59.752Z,11.63
2018-09-14T01:44:31.455Z,11.10
2018-09-14T01:46:58.960Z,9.20
2018-09-14T01:49:27.511Z,7.57
2018-09-14T01:51:54.958Z,19.77
2018-09-14T01:54:22.676Z,11.47
2018-09-14T01:59:50.046Z,13.47
2018-09-14T02:02:17.622Z,11.10
2018-09-14T02:04:45.461Z,15.83
2018-09-14T02:07:12.945Z,19.97
2018-09-14T02:09:46.254Z,11.93
2018-09-14T02:12:13.686Z,11.03
2018-09-14T02:14:41.131Z,11.60
2018-09-14T02:20:19.791Z,11.60
2018-09-14T02:25:40.269Z,8.33
2018-09-14T02:28:27.493Z,12.53
2018-09-14T02:30:54.982Z,22.40
2018-09-14T02:33:37.147Z,16.73
2018-09-14T02:36:04.634Z,17.07
2018-09-14T02:38:32.067Z,17.47
2018-09-14T02:41:00.571Z,12.00
2018-09-14T02:43:28.030Z,19.13
2018-09-14T02:45:55.457Z,17.27
2018-09-14T02:48:37.741Z,18.07
2018-09-14T02:51:05.326Z,18.50
2018-09-14T02:53:32.813Z,15.47
2018-09-14T02:56:00.303Z,14.03
2018-09-14T02:58:35.814Z,15.93
2018-09-14T03:01:03.261Z,12.30
2018-09-14T03:03:30.705Z,11.80
2018-09-14T03:05:59.199Z,18.53
2018-09-14T03:08:27.782Z,11.83
2018-09-14T03:10:55.226Z,17.30
2018-09-14T03:13:23.770Z,15.30
2018-09-14T03:15:51.196Z,16.33
2018-09-14T03:18:19.799Z,19.13
2018-09-14T03:20:51.763Z,14.93
2018-09-14T03:23:19.218Z,15.07
2018-09-14T03:25:46.653Z,19.40
2018-09-14T03:28:15.131Z,17.17
2018-09-14T03:30:42.869Z,19.90
2018-09-14T03:33:16.266Z,13.43
2018-09-14T03:35:43.932Z,10.57
2018-09-14T03:38:13.441Z,10.70
2018-09-14T03:40:42.038Z,6.20
2018-09-14T03:43:09.495Z,14.77
2018-09-14T03:45:37.963Z,12.70
2018-09-14T03:48:20.057Z,18.43
2018-09-14T03:50:47.478Z,22.43
2018-09-14T03:53:15.790Z,20.83
2018-09-14T03:55:43.343Z,11.13
2018-09-14T03:58:10.995Z,11.73
2018-09-14T04:00:38.926Z,7.60
2018-09-14T04:03:08.698Z,14.03
2018-09-14T04:05:36.155Z,11.93
2018-09-14T04:08:03.787Z,10.67
2018-09-14T04:10:31.273Z,12.57
2018-09-14T04:12:58.750Z,11.13
2018-09-14T04:15:26.362Z,13.23
2018-09-14T04:17:54.911Z,8.87
2018-09-14T04:20:22.337Z,15.53
2018-09-14T04:22:50.118Z,24.00
2018-09-14T04:25:17.762Z,15.87
2018-09-14T04:27:58.453Z,18.07
2018-09-14T04:30:29.692Z,24.07
2018-09-14T04:32:59.047Z,14.30
2018-09-14T04:35:38.551Z,19.53
2018-09-14T04:38:19.743Z,10.97
2018-09-14T04:40:47.138Z,13.70
2018-09-14T04:43:14.590Z,8.53
2018-09-14T04:45:45.508Z,8.37
2018-09-14T04:48:18.834Z,6.37
2018-09-14T04:50:46.237Z,11.20
2018-09-14T04:53:38.714Z,11.43
2018-09-14T04:56:11.717Z,11.33
2018-09-14T04:58:40.186Z,20.73
2018-09-14T05:01:12.761Z,17.80
2018-09-14T05:03:44.477Z,17.27
2018-09-14T05:06:17.893Z,11.97
2018-09-14T05:08:47.549Z,12.40
2018-09-14T05:11:21.872Z,14.33
2018-09-14T05:13:56.829Z,11.77
2018-09-14T05:16:36.402Z,10.67
2018-09-14T05:19:04.443Z,14.97
2018-09-14T05:21:34.974Z,10.33
2018-09-14T05:24:04.916Z,13.00
2018-09-14T05:26:39.423Z,16.80
2018-09-14T05:29:10.398Z,11.67
2018-09-14T05:31:39.327Z,18.03
2018-09-14T05:34:18.195Z,14.20
2018-09-14T05:37:08.753Z,12.37
2018-09-14T05:39:36.758Z,21.97
2018-09-14T05:42:04.581Z,16.60
2018-09-14T05:44:32.327Z,14.47
2018-09-14T05:47:05.495Z,12.53
2018-09-14T05:49:38.857Z,13.57
2018-09-14T05:52:06.702Z,14.50
2018-09-14T05:54:34.672Z,18.10
2018-09-14T05:57:02.347Z,16.80
2018-09-14T05:59:30.255Z,14.70
2018-09-14T06:01:58.021Z,17.97
2018-09-14T06:04:31.122Z,11.90
2018-09-14T06:06:58.889Z,17.77
2018-09-14T06:09:26.825Z,14.73
2018-09-14T06:12:10.747Z,16.00
2018-09-14T06:14:39.186Z,10.57
2018-09-14T06:17:07.409Z,14.33
2018-09-14T06:19:35.253Z,11.30
2018-09-14T06:22:03.141Z,10.13
2018-09-14T06:24:30.947Z,12.77
2018-09-14T06:26:58.927Z,11.20
2018-09-14T06:29:27.058Z,14.07
2018-09-14T06:31:54.846Z,11.47
2018-09-14T06:34:22.742Z,14.70
2018-09-14T06:36:50.490Z,11.50
2018-09-14T06:39:23.504Z,13.00
2018-09-14T06:41:57.678Z,12.30
2018-09-14T06:44:30.014Z,15.20
2018-09-14T06:46:57.754Z,14.53
2018-09-14T06:49:30.222Z,17.03
2018-09-14T06:51:58.007Z,15.40
2018-09-14T06:54:25.815Z,13.03
2018-09-14T06:56:53.658Z,13.30
2018-09-14T06:59:21.971Z,14.40
2018-09-14T07:01:51.674Z,14.70
2018-09-14T07:04:20.385Z,11.80
2018-09-14T07:06:50.310Z,14.43
2018-09-14T07:09:18.050Z,12.30
2018-09-14T07:11:52.555Z,11.87
2018-09-14T07:14:22.455Z,13.43
2018-09-14T07:17:02.735Z,12.90
2018-09-14T07:19:31.542Z,13.60
2018-09-14T07:21:59.594Z,12.33
2018-09-14T07:24:30.132Z,12.17
2018-09-14T07:26:57.714Z,13.47
2018-09-14T07:29:27.484Z,12.60
2018-09-14T07:34:51.066Z,12.53
2018-09-14T07:40:19.162Z,12.87
2018-09-14T07:42:52.466Z,14.70
2018-09-14T07:45:21.285Z,12.77
2018-09-14T07:47:52.120Z,13.23
2018-09-14T07:50:24.826Z,12.60
2018-09-14T07:53:04.556Z,14.20
2018-09-14T07:55:34.591Z,13.23
2018-09-14T07:58:02.345Z,11.97
2018-09-14T08:00:30.446Z,13.40
2018-09-14T08:03:05.843Z,13.03
2018-09-14T08:05:47.824Z,14.43
2018-09-14T08:08:16.077Z,16.10
2018-09-14T08:10:43.702Z,14.60
2018-09-14T08:13:11.491Z,15.07
2018-09-14T08:15:39.258Z,13.47
2018-09-14T08:18:07.046Z,12.07
2018-09-14T08:20:35.918Z,13.23
2018-09-14T08:23:14.858Z,16.50
2018-09-14T08:25:52.943Z,13.03
2018-09-14T08:28:28.984Z,9.37
2018-09-14T08:30:56.803Z,14.33
2018-09-14T08:33:25.519Z,10.37
2018-09-14T08:36:05.067Z,13.13
2018-09-14T08:38:38.802Z,10.13
2018-09-14T08:41:06.724Z,10.27
2018-09-14T08:43:42.989Z,9.43
2018-09-14T08:46:10.876Z,11.30
2018-09-14T08:48:40.688Z,15.53
2018-09-14T08:51:10.557Z,12.13
2018-09-14T08:53:40.438Z,13.40
2018-09-14T08:56:13.358Z,14.37
2018-09-14T08:58:41.319Z,17.47
2018-09-14T09:01:12.813Z,14.87
2018-09-14T09:03:40.686Z,14.93
2018-09-14T09:06:09.555Z,14.57
2018-09-14T09:08:44.259Z,14.37
2018-09-14T09:11:15.563Z,11.80
2018-09-14T09:13:45.460Z,13.37
2018-09-14T09:16:20.155Z,11.80
2018-09-14T09:18:47.961Z,13.77
2018-09-14T09:24:16.143Z,14.77
2018-09-14T09:26:58.712Z,13.23
2018-09-14T09:29:31.572Z,11.00
2018-09-14T09:32:01.513Z,13.93
2018-09-14T09:34:30.011Z,13.47
2018-09-14T09:37:01.257Z,12.83
2018-09-14T09:39:31.089Z,12.33
2018-09-14T09:42:04.863Z,10.97
2018-09-14T09:44:32.722Z,12.93
2018-09-14T09:47:00.624Z,13.67
2018-09-14T09:49:33.254Z,13.50
2018-09-14T09:54:54.527Z,13.70
2018-09-14T09:57:23.374Z,13.27
2018-09-14T09:59:57.172Z,12.57
2018-09-14T10:02:33.258Z,11.90
2018-09-14T10:05:16.463Z,12.07
2018-09-14T10:07:44.447Z,10.77
2018-09-14T10:10:12.291Z,10.37
2018-09-14T10:12:46.262Z,10.27
2018-09-14T10:15:14.114Z,9.87
2018-09-14T10:17:53.070Z,10.10
2018-09-14T10:20:20.794Z,8.13
2018-09-14T10:22:59.349Z,9.50
2018-09-14T10:25:27.132Z,7.70
2018-09-14T10:27:54.897Z,7.73
2018-09-14T10:30:23.850Z,8.50
2018-09-14T10:32:52.727Z,8.17
2018-09-14T10:35:20.427Z,9.63
2018-09-14T10:37:48.183Z,10.20
2018-09-14T10:40:15.968Z,9.97
2018-09-14T10:42:43.845Z,8.23
2018-09-14T10:45:12.641Z,7.70
2018-09-14T10:47:40.441Z,7.33
2018-09-14T10:50:08.243Z,8.40
2018-09-14T10:52:37.090Z,9.30
2018-09-14T10:55:05.038Z,6.37
2018-09-14T10:57:32.810Z,5.83
2018-09-14T11:00:00.639Z,5.80
2018-09-14T11:02:30.862Z,8.10
2018-09-14T11:04:59.838Z,7.17
2018-09-14T11:07:27.662Z,10.70
2018-09-14T11:09:56.596Z,9.60
2018-09-14T11:12:25.427Z,12.13
2018-09-14T11:14:53.154Z,10.40
2018-09-14T11:17:26.170Z,11.33
2018-09-14T11:19:53.938Z,13.10
2018-09-14T11:22:21.659Z,10.30
2018-09-14T11:24:51.744Z,12.37
2018-09-14T11:27:19.433Z,10.27
2018-09-14T11:29:47.124Z,11.67
2018-09-14T11:32:19.396Z,16.03
2018-09-14T11:34:48.321Z,14.57
2018-09-14T11:37:18.198Z,12.07
2018-09-14T11:39:49.930Z,12.30
2018-09-14T11:42:17.678Z,10.63
2018-09-14T11:44:45.409Z,14.80
2018-09-14T11:47:13.090Z,13.37
2018-09-14T11:49:40.844Z,14.50
2018-09-14T11:52:12.155Z,13.00
2018-09-14T11:54:58.780Z,12.73
2018-09-14T11:57:26.560Z,11.47
2018-09-14T11:59:54.342Z,14.20
2018-09-14T12:02:26.842Z,11.90
2018-09-14T12:04:55.475Z,12.53
2018-09-14T12:07:23.374Z,12.73
2018-09-14T12:09:52.175Z,11.10
2018-09-14T12:12:20.034Z,12.27
2018-09-14T12:15:07.163Z,13.43
2018-09-14T12:17:41.686Z,11.77
2018-09-14T12:20:15.023Z,12.47
2018-09-14T12:22:43.017Z,11.67
2018-09-14T12:25:14.958Z,12.03
2018-09-14T12:27:44.899Z,11.23
2018-09-14T12:30:20.615Z,12.47
2018-09-14T12:32:48.398Z,13.27
2018-09-14T12:35:20.627Z,10.83
2018-09-14T12:37:48.389Z,11.97
2018-09-14T12:40:20.173Z,12.07
2018-09-14T12:43:04.410Z,10.80
2018-09-14T12:45:32.398Z,11.27
2018-09-14T12:48:01.781Z,12.93
2018-09-14T12:50:29.598Z,11.83
2018-09-14T12:52:57.566Z,11.93
2018-09-14T12:55:27.370Z,12.73
2018-09-14T12:58:08.391Z,11.23
2018-09-14T13:00:36.198Z,11.73
2018-09-14T13:03:04.081Z,11.33
2018-09-14T13:05:31.826Z,11.67
2018-09-14T13:07:59.566Z,9.75
2018-09-14T13:10:27.334Z,11.47
2018-09-14T13:13:00.723Z,9.68
2018-09-14T13:15:33.854Z,9.55
2018-09-14T13:18:07.675Z,9.20
2018-09-14T13:20:41.584Z,10.43
2018-09-14T13:26:02.143Z,10.98
2018-09-14T13:28:29.883Z,8.80
2018-09-14T13:30:59.850Z,9.23
2018-09-14T13:36:24.510Z,9.55
2018-09-14T13:39:11.319Z,11.27
2018-09-14T13:41:39.091Z,7.33
2018-09-14T13:44:07.137Z,7.33
2018-09-14T13:46:34.964Z,9.07
2018-09-14T13:49:04.886Z,7.33
2018-09-14T13:51:32.590Z,8.87
2018-09-14T13:54:00.463Z,7.70
2018-09-14T13:56:29.006Z,9.10
2018-09-14T13:59:06.346Z,9.80
2018-09-14T14:01:35.225Z,8.97
2018-09-14T14:04:03.999Z,9.13
2018-09-14T14:06:32.150Z,9.13
2018-09-14T14:09:00.318Z,8.23
2018-09-14T14:11:28.110Z,7.77
2018-09-14T14:13:57.463Z,8.67
2018-09-14T14:16:25.261Z,9.07
2018-09-14T14:18:53.065Z,8.80
2018-09-14T14:21:20.859Z,8.83
2018-09-14T14:23:49.618Z,7.77
2018-09-14T14:26:20.683Z,8.47
2018-09-14T14:28:48.601Z,7.33
2018-09-14T14:31:18.405Z,7.57
2018-09-14T14:33:48.267Z,6.87
2018-09-14T14:36:17.103Z,7.90
2018-09-14T14:38:45.030Z,8.00
2018-09-14T14:41:16.876Z,7.10
2018-09-14T14:43:46.629Z,7.50
2018-09-14T14:46:19.896Z,6.93
2018-09-14T14:48:48.758Z,7.60
2018-09-14T14:51:16.511Z,8.30
2018-09-14T14:57:00.626Z,8.37
2018-09-14T14:59:32.295Z,7.73
2018-09-14T15:02:02.150Z,6.83
2018-09-14T15:04:30.882Z,7.50
2018-09-14T15:06:58.662Z,8.93
2018-09-14T15:09:26.439Z,6.87
2018-09-14T15:11:54.303Z,8.27
2018-09-14T15:14:22.020Z,8.17
2018-09-14T15:16:53.801Z,7.63
2018-09-14T15:19:21.883Z,8.80
2018-09-14T15:21:52.752Z,7.93
2018-09-14T15:24:22.662Z,8.37
2018-09-14T15:26:54.991Z,7.30
2018-09-14T15:29:24.670Z,6.70
2018-09-14T15:31:52.667Z,7.47
2018-09-14T15:34:25.082Z,7.23
2018-09-14T15:36:52.879Z,7.73
2018-09-14T15:39:20.671Z,8.13
2018-09-14T15:41:48.415Z,7.10
2018-09-14T15:44:16.249Z,6.43
2018-09-14T15:46:44.355Z,7.93
2018-09-14T15:49:16.910Z,7.90
2018-09-14T15:51:45.691Z,7.93
2018-09-14T15:54:36.871Z,8.20
2018-09-14T15:57:10.342Z,7.90
2018-09-14T15:59:44.301Z,6.27
2018-09-14T16:02:14.600Z,7.83
2018-09-14T16:04:42.207Z,9.60
2018-09-14T16:07:09.749Z,8.00
2018-09-14T16:09:37.314Z,8.30
2018-09-14T16:12:04.960Z,9.47
2018-09-14T16:14:32.631Z,9.20
2018-09-14T16:17:03.426Z,7.33
2018-09-14T16:19:36.224Z,7.03
2018-09-14T16:22:06.123Z,6.97
2018-09-14T16:24:54.152Z,10.20
2018-09-14T16:27:42.111Z,8.60
2018-09-14T16:30:10.321Z,9.87
2018-09-14T16:32:45.275Z,7.70
2018-09-14T16:35:22.747Z,7.33
2018-09-14T16:37:57.255Z,6.37
2018-09-14T16:40:26.811Z,8.40
2018-09-14T16:42:55.432Z,8.07
2018-09-14T16:45:23.089Z,8.30
2018-09-14T16:47:50.627Z,8.10
2018-09-14T16:50:19.201Z,8.30
2018-09-14T16:52:46.771Z,7.90
2018-09-14T16:55:20.744Z,7.50
2018-09-14T16:57:48.312Z,7.93
2018-09-14T17:00:15.894Z,7.20
2018-09-14T17:02:43.533Z,7.67
2018-09-14T17:05:11.082Z,8.90
2018-09-14T17:07:38.599Z,11.20
2018-09-14T17:10:06.224Z,8.53
2018-09-14T17:12:33.732Z,9.83
2018-09-14T17:15:01.276Z,9.20
2018-09-14T17:17:28.797Z,8.10
2018-09-14T17:19:56.498Z,9.07
2018-09-14T17:22:25.139Z,10.30
2018-09-14T17:24:52.707Z,10.40
2018-09-14T17:27:24.549Z,9.90
2018-09-14T17:29:52.028Z,9.33
2018-09-14T17:32:20.608Z,8.57
2018-09-14T17:34:55.839Z,8.30
2018-09-14T17:37:24.457Z,9.27
2018-09-14T17:39:52.143Z,8.30
2018-09-14T17:42:19.804Z,13.77
2018-09-14T17:44:47.328Z,9.40
2018-09-14T17:47:14.919Z,8.60
2018-09-14T17:49:42.518Z,10.87
2018-09-14T17:52:10.111Z,9.27
2018-09-14T17:54:37.661Z,10.90
2018-09-14T17:57:05.263Z,10.00
2018-09-14T17:59:36.819Z,13.90
2018-09-14T18:02:04.472Z,12.70
2018-09-14T18:04:32.004Z,10.63
2018-09-14T18:07:00.530Z,13.73
2018-09-14T18:09:30.149Z,11.00
2018-09-14T18:11:57.698Z,11.63
2018-09-14T18:14:25.267Z,14.57
2018-09-14T18:16:59.337Z,14.13
2018-09-14T18:19:32.538Z,12.50
2018-09-14T18:22:00.162Z,11.40
2018-09-14T18:24:27.714Z,9.53
2018-09-14T18:27:05.883Z,11.03
2018-09-14T18:29:33.474Z,12.77
2018-09-14T18:32:02.063Z,10.37
2018-09-14T18:34:31.650Z,9.73
2018-09-14T18:37:00.271Z,8.43
2018-09-14T18:39:32.634Z,9.50
2018-09-14T18:42:02.241Z,10.73
2018-09-14T18:44:29.858Z,10.43
2018-09-14T18:47:02.810Z,11.10
2018-09-14T18:49:32.648Z,10.00
2018-09-14T18:52:01.048Z,9.53
2018-09-14T18:54:30.684Z,9.63
2018-09-14T18:56:58.339Z,10.83
2018-09-14T18:59:25.953Z,10.73
2018-09-14T19:01:53.572Z,10.87
2018-09-14T19:04:21.111Z,13.13
2018-09-14T19:06:48.699Z,10.47
2018-09-14T19:09:21.838Z,8.97
2018-09-14T19:11:49.395Z,9.53
2018-09-14T19:14:16.914Z,10.43
2018-09-14T19:16:44.652Z,9.30
2018-09-14T19:19:12.240Z,10.60
2018-09-14T19:21:39.807Z,11.57
2018-09-14T19:24:07.347Z,10.77
2018-09-14T19:26:34.920Z,8.87
2018-09-14T19:29:02.523Z,9.67
2018-09-14T19:31:30.219Z,11.23
2018-09-14T19:33:57.828Z,10.60
2018-09-14T19:36:25.399Z,10.50
2018-09-14T19:38:52.946Z,13.73
2018-09-14T19:41:20.719Z,12.03
2018-09-14T19:43:48.267Z,13.20
2018-09-14T19:46:15.831Z,12.90
2018-09-14T19:48:43.348Z,16.17
2018-09-14T19:51:10.926Z,14.80
2018-09-14T19:53:39.500Z,12.17
2018-09-14T19:56:07.055Z,16.00
2018-09-14T19:58:34.599Z,15.17
2018-09-14T20:01:02.143Z,11.87
2018-09-14T20:03:29.674Z,16.07
2018-09-14T20:05:57.239Z,12.40
2018-09-14T20:08:24.782Z,10.13
2018-09-14T20:10:52.362Z,8.30
2018-09-14T20:13:19.865Z,9.87
2018-09-14T20:15:47.454Z,8.93
2018-09-14T20:18:15.053Z,7.07
2018-09-14T20:20:42.623Z,7.83
2018-09-14T20:23:10.221Z,9.00
2018-09-14T20:25:38.785Z,8.27
2018-09-14T20:28:06.365Z,8.53
2018-09-14T20:30:33.933Z,8.10
2018-09-14T20:33:01.441Z,7.13
2018-09-14T20:35:29.025Z,8.27
2018-09-14T20:37:56.579Z,8.83
2018-09-14T20:40:24.199Z,7.77
2018-09-14T20:42:51.764Z,7.60
2018-09-14T20:45:22.697Z,12.67
2018-09-14T20:47:50.233Z,14.17
2018-09-14T20:50:17.859Z,9.13
2018-09-14T20:52:45.368Z,8.63
2018-09-14T20:55:12.951Z,7.60
2018-09-14T20:57:40.491Z,7.20
2018-09-14T21:00:08.044Z,8.57
2018-09-14T21:02:35.619Z,7.97
2018-09-14T21:05:03.386Z,7.00
2018-09-14T21:07:30.973Z,8.93
2018-09-14T21:09:58.470Z,8.63
2018-09-14T21:12:26.027Z,6.00
2018-09-14T21:14:53.756Z,6.20
2018-09-14T21:17:21.420Z,6.50
2018-09-14T21:19:48.918Z,7.20
2018-09-14T21:22:16.436Z,7.90
2018-09-14T21:24:44.010Z,7.43
2018-09-14T21:27:11.554Z,7.47
2018-09-14T21:29:39.126Z,7.37
2018-09-14T21:32:06.651Z,7.37
2018-09-14T21:34:34.192Z,7.30
2018-09-14T21:37:01.715Z,8.80
2018-09-14T21:39:29.251Z,9.23
2018-09-14T21:41:56.895Z,8.20
2018-09-14T21:44:24.444Z,10.47
2018-09-14T21:46:51.981Z,9.03
2018-09-14T21:49:19.531Z,9.97
2018-09-14T21:51:47.150Z,9.73
2018-09-14T21:54:14.675Z,7.80
2018-09-14T21:56:42.433Z,9.37
2018-09-14T21:59:10.000Z,9.50
2018-09-14T22:01:37.610Z,7.73
2018-09-14T22:04:05.127Z,7.50
2018-09-14T22:06:32.679Z,9.77
2018-09-14T22:09:00.193Z,12.03
2018-09-14T22:11:27.786Z,8.80
2018-09-14T22:13:55.320Z,7.80
2018-09-14T22:16:22.883Z,9.57
2018-09-14T22:18:50.447Z,8.63
2018-09-14T22:21:18.318Z,7.10
2018-09-14T22:23:45.866Z,8.30
2018-09-14T22:26:13.402Z,9.03
2018-09-14T22:28:40.966Z,7.77
2018-09-14T22:31:08.523Z,7.03
2018-09-14T22:33:36.067Z,7.97
2018-09-14T22:36:03.680Z,7.07
2018-09-14T22:38:31.296Z,7.47
2018-09-14T22:40:58.819Z,7.77
2018-09-14T22:43:26.357Z,6.57
2018-09-14T22:45:53.880Z,6.23
2018-09-14T22:48:21.416Z,6.40
2018-09-14T22:50:49.004Z,5.60
2018-09-14T22:53:16.652Z,7.73
2018-09-14T22:55:44.193Z,8.90
2018-09-14T22:58:11.696Z,6.43
2018-09-14T23:00:44.944Z,7.17
2018-09-14T23:03:12.475Z,6.47
2018-09-14T23:05:40.107Z,7.47
2018-09-14T23:08:07.815Z,7.27
2018-09-14T23:10:35.390Z,9.37
2018-09-14T23:13:02.943Z,8.40
2018-09-14T23:15:30.602Z,6.20
2018-09-14T23:17:58.172Z,7.17
2018-09-14T23:20:25.714Z,8.43
2018-09-14T23:22:53.253Z,10.27
2018-09-14T23:25:20.891Z,10.30
2018-09-14T23:27:48.441Z,11.87
2018-09-14T23:30:17.038Z,13.27
2018-09-14T23:32:44.614Z,8.20
2018-09-14T23:35:12.135Z,8.43
2018-09-14T23:37:39.730Z,14.67
2018-09-14T23:40:07.312Z,15.10
2018-09-14T23:42:34.900Z,10.30
2018-09-14T23:45:02.568Z,10.13
2018-09-14T23:47:30.159Z,10.50
2018-09-14T23:49:57.970Z,10.30
2018-09-14T23:52:25.595Z,10.47
2018-09-14T23:54:53.193Z,12.23
2018-09-14T23:57:20.736Z,10.57
2018-09-14T23:59:48.374Z,10.63
